Time;durP1;ratioP1;P1;durP2;ratioP2;P2;SDS_P1;SDS_P2;PMS_P1;PMS_P2;Temp;Humidity;BMP_temperature;BMP_pressure;BME280_temperature;BME280_humidity;BME280_pressure;Samples;Min_cycle;Max_cycle;Signal;HPM_P1;HPM_P2
2022/08/05 00:02:24;;;;;;;6.03;3.10;;;;;;;;;;5036823;28;20053;-77
2022/08/05 00:05:10;;;;;;;9.40;3.47;;;;;;;;;;5036740;28;20041;-76
2022/08/05 00:07:56;;;;;;;3.70;3.28;;;;;;;;;;5036892;28;20045;-77
2022/08/05 00:10:44;;;;;;;4.43;3.53;;;;;;;;;;5036814;28;20049;-78
2022/08/05 00:13:34;;;;;;;5.03;3.40;;;;;;;;;;5037258;28;20037;-78
2022/08/05 00:16:20;;;;;;;4.70;3.45;;;;;;;;;;5036329;28;20046;-78
2022/08/05 00:19:05;;;;;;;7.18;3.10;;;;;;;;;;5028861;28;20038;-77
2022/08/05 00:21:51;;;;;;;4.13;3.38;;;;;;;;;;5022662;28;20049;-76
2022/08/05 00:24:36;;;;;;;7.15;3.28;;;;;;;;;;5037503;28;20034;-77
2022/08/05 00:27:22;;;;;;;3.88;3.40;;;;;;;;;;5037559;28;20054;-78
2022/08/05 00:30:09;;;;;;;4.13;3.35;;;;;;;;;;5028764;28;20478;-78
2022/08/05 00:32:58;;;;;;;5.97;3.63;;;;;;;;;;5015442;28;20049;-76
2022/08/05 00:35:43;;;;;;;4.95;3.28;;;;;;;;;;5021438;28;20042;-78
2022/08/05 00:38:29;;;;;;;5.60;3.60;;;;;;;;;;5036043;28;20041;-78
2022/08/05 00:41:27;;;;;;;4.13;3.30;;;;;;;;;;5036165;28;20391;-78
2022/08/05 00:44:12;;;;;;;5.97;3.35;;;;;;;;;;5036239;28;20406;-77
2022/08/05 00:47:01;;;;;;;4.63;3.70;;;;;;;;;;5036273;28;20041;-76
2022/08/05 00:49:56;;;;;;;3.47;3.17;;;;;;;;;;5027753;28;20390;-76
2022/08/05 00:52:41;;;;;;;3.65;3.25;;;;;;;;;;5021334;28;20045;-78
2022/08/05 00:55:26;;;;;;;3.95;3.55;;;;;;;;;;5035899;28;20390;-77
2022/08/05 00:58:15;;;;;;;5.57;3.55;;;;;;;;;;5035938;28;20045;-78
2022/08/05 01:01:04;;;;;;;4.18;3.20;;;;;;;;;;5042356;28;20045;-78
2022/08/05 01:03:50;;;;;;;4.30;3.63;;;;;;;;;;5035619;28;20041;-77
2022/08/05 01:06:36;;;;;;;4.40;3.50;;;;;;;;;;5035272;28;20042;-78
2022/08/05 01:09:21;;;;;;;4.95;3.65;;;;;;;;;;5035485;28;20045;-77
2022/08/05 01:12:11;;;;;;;5.32;3.80;;;;;;;;;;5020778;28;20050;-77
2022/08/05 01:15:01;;;;;;;4.85;3.80;;;;;;;;;;5035130;28;20054;-77
2022/08/05 01:17:56;;;;;;;4.03;3.63;;;;;;;;;;5013500;28;20045;-76
2022/08/05 01:21:11;;;;;;;7.07;3.90;;;;;;;;;;5041062;28;20050;-78
2022/08/05 01:24:05;;;;;;;3.90;3.42;;;;;;;;;;5035295;28;20053;-77
2022/08/05 01:27:23;;;;;;;3.97;3.58;;;;;;;;;;5035577;28;20495;-77
2022/08/05 01:30:09;;;;;;;4.38;3.70;;;;;;;;;;4976731;28;20045;-79
2022/08/05 01:32:57;;;;;;;5.15;4.10;;;;;;;;;;5035013;28;20471;-77
2022/08/05 01:35:46;;;;;;;5.03;3.63;;;;;;;;;;5034165;28;20053;-77
2022/08/05 01:38:35;;;;;;;5.13;3.85;;;;;;;;;;5034890;28;20045;-77
2022/08/05 01:41:22;;;;;;;4.78;3.95;;;;;;;;;;5034627;28;20398;-77
2022/08/05 01:44:09;;;;;;;4.82;3.75;;;;;;;;;;5034724;28;20049;-78
2022/08/05 01:46:56;;;;;;;5.97;4.10;;;;;;;;;;5034650;28;20045;-78
2022/08/05 01:49:42;;;;;;;4.43;4.03;;;;;;;;;;5034344;28;20049;-77
2022/08/05 01:52:29;;;;;;;6.40;4.00;;;;;;;;;;5034508;28;20045;-77
2022/08/05 01:55:16;;;;;;;5.13;3.70;;;;;;;;;;5034313;28;20041;-77
2022/08/05 01:58:04;;;;;;;4.30;3.90;;;;;;;;;;5034354;28;20053;-77
2022/08/05 02:00:51;;;;;;;4.40;3.83;;;;;;;;;;5041087;28;20049;-77
2022/08/05 02:03:41;;;;;;;4.80;4.28;;;;;;;;;;5034143;28;20041;-77
2022/08/05 02:06:27;;;;;;;6.57;4.05;;;;;;;;;;5040887;28;20041;-78
2022/08/05 02:09:12;;;;;;;4.65;4.10;;;;;;;;;;5033997;28;20049;-77
2022/08/05 02:12:13;;;;;;;5.50;4.10;;;;;;;;;;5034189;28;20045;-78
2022/08/05 02:15:12;;;;;;;8.65;3.92;;;;;;;;;;5034074;28;20045;-78
2022/08/05 02:18:05;;;;;;;6.40;4.15;;;;;;;;;;5033970;28;20042;-77
2022/08/05 02:21:10;;;;;;;5.07;3.90;;;;;;;;;;5034064;28;20045;-79
2022/08/05 02:24:02;;;;;;;9.32;4.03;;;;;;;;;;5034109;28;20045;-77
2022/08/05 02:26:51;;;;;;;5.90;3.60;;;;;;;;;;5034188;28;20045;-76
2022/08/05 02:29:42;;;;;;;5.38;3.72;;;;;;;;;;5040391;28;20045;-76
2022/08/05 02:32:30;;;;;;;4.75;4.13;;;;;;;;;;5025387;28;20045;-77
2022/08/05 02:35:22;;;;;;;5.80;4.72;;;;;;;;;;5034135;28;20049;-76
2022/08/05 02:38:09;;;;;;;4.50;3.90;;;;;;;;;;5033800;28;20045;-76
2022/08/05 02:40:57;;;;;;;5.82;4.30;;;;;;;;;;5033944;28;20053;-76
2022/08/05 02:43:44;;;;;;;6.03;3.95;;;;;;;;;;5033603;28;20061;-77
2022/08/05 02:46:30;;;;;;;7.80;4.03;;;;;;;;;;5033496;28;20041;-76
2022/08/05 02:49:16;;;;;;;5.07;3.92;;;;;;;;;;5033759;28;20041;-77
2022/08/05 02:52:06;;;;;;;5.00;4.03;;;;;;;;;;5032796;28;20053;-76
2022/08/05 02:54:54;;;;;;;4.93;3.60;;;;;;;;;;5033531;28;20491;-76
2022/08/05 02:57:40;;;;;;;5.22;3.88;;;;;;;;;;5033892;28;20049;-77
2022/08/05 03:00:26;;;;;;;6.95;4.43;;;;;;;;;;5033187;28;20057;-76
2022/08/05 03:03:18;;;;;;;4.80;3.83;;;;;;;;;;5033264;28;20498;-78
2022/08/05 03:06:04;;;;;;;4.57;3.75;;;;;;;;;;5033055;28;20049;-76
2022/08/05 03:08:51;;;;;;;5.18;4.35;;;;;;;;;;5033359;28;20042;-76
2022/08/05 03:11:36;;;;;;;4.50;4.10;;;;;;;;;;5033030;28;20502;-77
2022/08/05 03:14:22;;;;;;;6.95;4.65;;;;;;;;;;5033201;28;20053;-76
2022/08/05 03:17:07;;;;;;;7.45;4.53;;;;;;;;;;5033458;28;20045;-77
2022/08/05 03:19:52;;;;;;;8.48;4.60;;;;;;;;;;5039836;28;20061;-76
2022/08/05 03:22:38;;;;;;;4.43;4.03;;;;;;;;;;5033722;28;20049;-77
2022/08/05 03:25:25;;;;;;;4.78;4.20;;;;;;;;;;5033580;28;20054;-77
2022/08/05 03:28:11;;;;;;;7.85;4.38;;;;;;;;;;5032885;28;20050;-76
2022/08/05 03:30:58;;;;;;;4.95;3.92;;;;;;;;;;5039366;28;20049;-76
2022/08/05 03:33:44;;;;;;;4.93;4.30;;;;;;;;;;5033119;28;20049;-77
2022/08/05 03:36:30;;;;;;;6.82;4.50;;;;;;;;;;5033159;28;20483;-77
2022/08/05 03:39:15;;;;;;;4.90;4.35;;;;;;;;;;5033271;28;20386;-76
2022/08/05 03:42:01;;;;;;;9.80;4.72;;;;;;;;;;5032967;28;20049;-77
2022/08/05 03:44:47;;;;;;;6.88;4.47;;;;;;;;;;5033394;28;20053;-77
2022/08/05 03:47:32;;;;;;;4.60;4.05;;;;;;;;;;5033011;28;20053;-76
2022/08/05 03:50:19;;;;;;;5.07;4.57;;;;;;;;;;5032878;28;20483;-76
2022/08/05 03:53:11;;;;;;;5.65;4.60;;;;;;;;;;5033262;28;20041;-76
2022/08/05 03:56:02;;;;;;;5.70;4.15;;;;;;;;;;5039417;28;20479;-75
2022/08/05 03:58:52;;;;;;;5.88;4.35;;;;;;;;;;5033618;28;20395;-77
2022/08/05 04:01:41;;;;;;;8.80;4.97;;;;;;;;;;5043238;28;20490;-76
2022/08/05 04:04:28;;;;;;;6.90;4.53;;;;;;;;;;5036438;28;20395;-76
2022/08/05 04:07:14;;;;;;;5.13;4.45;;;;;;;;;;5036283;28;20045;-76
2022/08/05 04:09:59;;;;;;;11.60;4.65;;;;;;;;;;5036138;28;20045;-76
2022/08/05 04:12:45;;;;;;;5.85;4.38;;;;;;;;;;5036568;28;20033;-76
2022/08/05 04:15:30;;;;;;;4.45;4.00;;;;;;;;;;5036236;28;20041;-77
2022/08/05 04:18:16;;;;;;;9.10;5.15;;;;;;;;;;5036837;28;20049;-80
2022/08/05 04:21:03;;;;;;;6.07;4.40;;;;;;;;;;5041273;28;20053;-82
2022/08/05 04:23:48;;;;;;;5.90;4.60;;;;;;;;;;5036009;28;20033;-80
2022/08/05 04:26:34;;;;;;;6.78;4.50;;;;;;;;;;5036394;28;20045;-80
2022/08/05 04:29:19;;;;;;;10.02;5.53;;;;;;;;;;5036023;28;20486;-79
2022/08/05 04:32:06;;;;;;;8.95;5.72;;;;;;;;;;5035988;28;20038;-79
2022/08/05 04:34:52;;;;;;;24.15;11.85;;;;;;;;;;5036144;28;20053;-79
2022/08/05 04:37:38;;;;;;;10.70;6.63;;;;;;;;;;5035906;28;20041;-78
2022/08/05 04:40:23;;;;;;;46.90;28.85;;;;;;;;;;5042522;28;20045;-78
2022/08/05 04:43:09;;;;;;;14.90;8.25;;;;;;;;;;5035794;28;20479;-79
2022/08/05 04:45:54;;;;;;;6.88;4.45;;;;;;;;;;5035739;28;20033;-79
2022/08/05 04:48:40;;;;;;;7.70;4.60;;;;;;;;;;5035765;28;20403;-78
2022/08/05 04:51:26;;;;;;;6.53;4.45;;;;;;;;;;5035254;28;20049;-78
2022/08/05 04:54:13;;;;;;;5.18;4.55;;;;;;;;;;5035483;28;20050;-78
2022/08/05 04:56:58;;;;;;;7.25;4.80;;;;;;;;;;5035912;28;20037;-80
2022/08/05 04:59:43;;;;;;;6.97;4.40;;;;;;;;;;5034987;28;20049;-80
2022/08/05 05:02:29;;;;;;;5.60;3.80;;;;;;;;;;5035013;28;20430;-79
2022/08/05 05:05:16;;;;;;;8.95;4.78;;;;;;;;;;5035236;28;20033;-78
2022/08/05 05:08:06;;;;;;;5.68;4.25;;;;;;;;;;5035445;28;20037;-78
2022/08/05 05:10:52;;;;;;;7.15;4.30;;;;;;;;;;5034400;28;20050;-79
2022/08/05 05:13:37;;;;;;;9.25;4.50;;;;;;;;;;5042095;28;20041;-78
2022/08/05 05:16:23;;;;;;;9.77;4.43;;;;;;;;;;5035726;28;20041;-79
2022/08/05 05:19:08;;;;;;;11.95;4.60;;;;;;;;;;5035081;28;20482;-77
2022/08/05 05:21:54;;;;;;;6.68;4.05;;;;;;;;;;5034852;28;20049;-78
2022/08/05 05:24:40;;;;;;;5.40;4.45;;;;;;;;;;5041703;28;20041;-77
2022/08/05 05:27:32;;;;;;;5.30;4.03;;;;;;;;;;5034226;28;20045;-77
2022/08/05 05:30:18;;;;;;;8.50;4.05;;;;;;;;;;5034818;28;20387;-78
2022/08/05 05:33:05;;;;;;;6.95;4.03;;;;;;;;;;5034886;28;20050;-77
2022/08/05 05:35:50;;;;;;;8.90;4.00;;;;;;;;;;5041906;28;20053;-77
2022/08/05 05:38:36;;;;;;;5.25;4.00;;;;;;;;;;5034336;28;20041;-78
2022/08/05 05:41:21;;;;;;;6.72;4.38;;;;;;;;;;5035557;28;20041;-81
2022/08/05 05:44:07;;;;;;;9.55;3.85;;;;;;;;;;5034662;28;20045;-77
2022/08/05 05:46:52;;;;;;;7.88;4.75;;;;;;;;;;5034613;28;20041;-77
2022/08/05 05:49:38;;;;;;;4.75;3.35;;;;;;;;;;5034571;28;20045;-78
2022/08/05 05:52:24;;;;;;;5.13;3.63;;;;;;;;;;5033700;28;20042;-80
2022/08/05 05:55:12;;;;;;;6.65;4.03;;;;;;;;;;5033996;28;20050;-80
2022/08/05 05:57:57;;;;;;;4.75;3.75;;;;;;;;;;5034385;28;20045;-81
2022/08/05 06:00:42;;;;;;;6.28;3.58;;;;;;;;;;5034189;28;20053;-78
2022/08/05 06:03:28;;;;;;;6.25;3.85;;;;;;;;;;5034059;28;20045;-77
2022/08/05 06:06:13;;;;;;;5.57;4.65;;;;;;;;;;5033910;28;20045;-76
2022/08/05 06:08:59;;;;;;;4.88;3.60;;;;;;;;;;5033330;28;20041;-76
2022/08/05 06:11:44;;;;;;;4.80;3.28;;;;;;;;;;5033778;28;20434;-77
2022/08/05 06:14:30;;;;;;;6.70;4.28;;;;;;;;;;5040488;28;20045;-75
2022/08/05 06:17:15;;;;;;;4.63;3.53;;;;;;;;;;5033547;28;20045;-76
2022/08/05 06:20:01;;;;;;;9.00;3.90;;;;;;;;;;5033943;28;20042;-76
2022/08/05 06:22:46;;;;;;;8.70;3.78;;;;;;;;;;5032554;28;20053;-77
2022/08/05 06:25:31;;;;;;;9.27;3.70;;;;;;;;;;5033730;28;20041;-77
2022/08/05 06:28:17;;;;;;;11.77;3.85;;;;;;;;;;5040272;28;20045;-77
2022/08/05 06:31:03;;;;;;;6.93;3.70;;;;;;;;;;5033338;28;20041;-76
2022/08/05 06:33:49;;;;;;;8.50;3.83;;;;;;;;;;5040653;28;20049;-77
2022/08/05 06:36:34;;;;;;;12.45;4.22;;;;;;;;;;5033261;28;20045;-77
2022/08/05 06:39:20;;;;;;;12.63;4.00;;;;;;;;;;5033667;28;20050;-77
2022/08/05 06:42:05;;;;;;;6.80;4.13;;;;;;;;;;5040511;28;20041;-77
2022/08/05 06:44:51;;;;;;;6.57;3.88;;;;;;;;;;5033193;28;20089;-77
2022/08/05 06:47:36;;;;;;;5.07;3.65;;;;;;;;;;5033540;28;20034;-78
2022/08/05 06:50:22;;;;;;;7.10;3.88;;;;;;;;;;5033442;28;20492;-77
2022/08/05 06:53:08;;;;;;;6.53;3.83;;;;;;;;;;5033297;28;20053;-77
2022/08/05 06:55:53;;;;;;;5.93;3.30;;;;;;;;;;5033581;28;20406;-77
2022/08/05 06:58:39;;;;;;;4.63;3.30;;;;;;;;;;5032995;28;20041;-76
2022/08/05 07:01:24;;;;;;;4.45;3.50;;;;;;;;;;5032681;28;20502;-77
2022/08/05 07:04:10;;;;;;;4.43;3.50;;;;;;;;;;5039517;28;20042;-77
2022/08/05 07:06:55;;;;;;;5.15;3.50;;;;;;;;;;5032052;28;20050;-79
2022/08/05 07:09:41;;;;;;;5.80;3.55;;;;;;;;;;5032924;28;20053;-81
2022/08/05 07:18:34;;;;;;;6.15;4.07;;;;;;;;;;5036621;28;20041;-78
2022/08/05 07:21:19;;;;;;;5.70;3.80;;;;;;;;;;5035766;28;20042;-80
2022/08/05 07:24:05;;;;;;;6.13;3.70;;;;;;;;;;5037913;28;20049;-81
2022/08/05 07:26:51;;;;;;;5.85;3.45;;;;;;;;;;5037617;28;20045;-83
2022/08/05 07:29:36;;;;;;;6.18;3.50;;;;;;;;;;5030247;28;20046;-82
2022/08/05 07:32:22;;;;;;;7.85;3.95;;;;;;;;;;5038246;28;20046;-84
2022/08/05 07:35:08;;;;;;;5.35;3.45;;;;;;;;;;5041787;28;20053;-81
2022/08/05 07:37:54;;;;;;;5.95;3.90;;;;;;;;;;5036749;28;20046;-82
2022/08/05 07:40:39;;;;;;;7.13;4.00;;;;;;;;;;5036027;28;20049;-80
2022/08/05 07:43:25;;;;;;;9.32;3.95;;;;;;;;;;5036354;28;20053;-83
2022/08/05 07:46:11;;;;;;;6.07;4.10;;;;;;;;;;5036331;28;20475;-82
2022/08/05 07:48:58;;;;;;;6.10;4.30;;;;;;;;;;5035761;28;20049;-81
2022/08/05 07:51:44;;;;;;;7.82;3.88;;;;;;;;;;5036055;28;20041;-84
2022/08/05 07:54:29;;;;;;;5.80;3.95;;;;;;;;;;5037053;28;20045;-83
2022/08/05 07:57:15;;;;;;;4.78;3.97;;;;;;;;;;5034782;28;20116;-86
2022/08/05 08:00:02;;;;;;;5.22;2.97;;;;;;;;;;5035748;28;20045;-78
2022/08/05 08:02:57;;;;;;;3.50;3.13;;;;;;;;;;5035624;28;20033;-82
2022/08/05 08:05:43;;;;;;;3.58;3.13;;;;;;;;;;5036476;28;20045;-78
2022/08/05 08:08:28;;;;;;;11.02;3.50;;;;;;;;;;5036275;28;20049;-77
2022/08/05 08:11:14;;;;;;;3.58;2.60;;;;;;;;;;5035715;28;20490;-76
2022/08/05 08:13:59;;;;;;;4.15;2.97;;;;;;;;;;5036162;28;20042;-76
2022/08/05 08:16:45;;;;;;;4.55;2.78;;;;;;;;;;5035753;28;20045;-76
2022/08/05 08:19:30;;;;;;;3.65;3.00;;;;;;;;;;5036285;28;20049;-76
2022/08/05 08:22:16;;;;;;;4.38;2.90;;;;;;;;;;5035859;28;20042;-76
2022/08/05 08:25:02;;;;;;;37.35;28.98;;;;;;;;;;5035444;28;20041;-76
2022/08/05 08:27:47;;;;;;;19.63;15.27;;;;;;;;;;5036050;28;20046;-76
2022/08/05 08:30:33;;;;;;;7.45;5.90;;;;;;;;;;5042087;28;20045;-75
2022/08/05 08:33:19;;;;;;;6.93;5.57;;;;;;;;;;5035923;28;20045;-76
2022/08/05 08:36:06;;;;;;;8.88;4.75;;;;;;;;;;5035891;28;20474;-74
2022/08/05 08:38:54;;;;;;;6.07;3.28;;;;;;;;;;5020621;28;20045;-77
2022/08/05 08:41:41;;;;;;;5.38;4.25;;;;;;;;;;5035712;28;20049;-76
2022/08/05 08:44:29;;;;;;;6.72;3.75;;;;;;;;;;5035820;28;20398;-77
2022/08/05 08:47:17;;;;;;;7.13;2.97;;;;;;;;;;5035191;28;20049;-77
2022/08/05 08:50:03;;;;;;;5.53;2.97;;;;;;;;;;5035481;28;20483;-77
2022/08/05 08:52:52;;;;;;;3.55;2.83;;;;;;;;;;5041253;28;20045;-77
2022/08/05 08:55:38;;;;;;;4.05;2.90;;;;;;;;;;5035181;28;20046;-78
2022/08/05 08:58:24;;;;;;;4.63;2.80;;;;;;;;;;5035436;28;20053;-77
2022/08/05 09:01:10;;;;;;;6.07;3.40;;;;;;;;;;5035330;28;20053;-77
2022/08/05 09:03:55;;;;;;;5.35;2.70;;;;;;;;;;5035260;28;20037;-78
2022/08/05 09:06:41;;;;;;;5.00;3.10;;;;;;;;;;5034062;28;20041;-78
2022/08/05 09:09:26;;;;;;;4.38;2.88;;;;;;;;;;5034244;28;20053;-78
2022/08/05 09:12:11;;;;;;;4.97;2.97;;;;;;;;;;5034888;28;20046;-78
2022/08/05 09:14:57;;;;;;;3.85;2.72;;;;;;;;;;5034355;28;20049;-78
2022/08/05 09:17:43;;;;;;;3.80;2.85;;;;;;;;;;5034546;28;20053;-77
2022/08/05 09:20:29;;;;;;;2.83;2.53;;;;;;;;;;5034572;28;20046;-78
2022/08/05 09:23:16;;;;;;;4.35;2.40;;;;;;;;;;5034491;28;20045;-76
2022/08/05 09:26:09;;;;;;;6.18;2.30;;;;;;;;;;5033951;28;20046;-76
2022/08/05 09:29:00;;;;;;;4.35;2.30;;;;;;;;;;5034251;28;20045;-76
2022/08/05 09:32:03;;;;;;;3.75;2.30;;;;;;;;;;5034589;28;20486;-77
2022/08/05 09:34:53;;;;;;;3.15;2.30;;;;;;;;;;5034155;28;20042;-77
2022/08/05 09:37:53;;;;;;;2.88;2.10;;;;;;;;;;5040769;28;20498;-77
2022/08/05 09:40:41;;;;;;;2.30;2.10;;;;;;;;;;5034724;28;20054;-74
2022/08/05 09:43:28;;;;;;;3.58;2.10;;;;;;;;;;5033922;28;20499;-78
2022/08/05 09:46:26;;;;;;;2.13;1.90;;;;;;;;;;5034422;28;20049;-76
2022/08/05 09:49:23;;;;;;;4.60;2.30;;;;;;;;;;5033984;28;20407;-78
2022/08/05 09:52:28;;;;;;;3.13;2.10;;;;;;;;;;5033322;28;20045;-76
2022/08/05 09:55:13;;;;;;;3.17;2.00;;;;;;;;;;5033975;28;20053;-77
2022/08/05 09:57:59;;;;;;;5.25;1.88;;;;;;;;;;5033362;28;20045;-77
2022/08/05 10:01:11;;;;;;;3.85;2.20;;;;;;;;;;5033605;28;20037;-78
2022/08/05 10:03:59;;;;;;;3.58;2.40;;;;;;;;;;5032919;28;20045;-77
2022/08/05 10:06:56;;;;;;;4.22;2.00;;;;;;;;;;5040185;28;20041;-78
2022/08/05 10:09:55;;;;;;;2.75;2.25;;;;;;;;;;5040022;28;20037;-76
2022/08/05 10:12:46;;;;;;;2.50;2.10;;;;;;;;;;5032027;28;20053;-76
2022/08/05 10:15:38;;;;;;;3.35;2.35;;;;;;;;;;5032577;28;20042;-78
2022/08/05 10:18:26;;;;;;;3.30;2.20;;;;;;;;;;5033105;28;20045;-76
2022/08/05 10:21:11;;;;;;;4.82;2.38;;;;;;;;;;5032909;28;20406;-77
2022/08/05 10:23:57;;;;;;;4.13;2.25;;;;;;;;;;5034104;28;20058;-76
2022/08/05 10:26:45;;;;;;;4.25;2.33;;;;;;;;;;5034223;28;20478;-76
2022/08/05 10:29:35;;;;;;;3.17;2.13;;;;;;;;;;5035198;28;20050;-76
2022/08/05 10:32:21;;;;;;;2.53;2.20;;;;;;;;;;5040197;28;20402;-76
2022/08/05 10:35:07;;;;;;;3.53;2.28;;;;;;;;;;5033849;28;20042;-77
2022/08/05 10:37:53;;;;;;;2.25;2.05;;;;;;;;;;5034269;28;20483;-77
2022/08/05 10:40:50;;;;;;;3.90;2.30;;;;;;;;;;5032958;28;20049;-77
2022/08/05 10:44:05;;;;;;;2.90;2.00;;;;;;;;;;5033506;28;20041;-78
2022/08/05 10:46:53;;;;;;;2.70;2.20;;;;;;;;;;5032959;28;20053;-78
2022/08/05 10:49:59;;;;;;;2.50;2.15;;;;;;;;;;5033570;28;20041;-75
2022/08/05 10:52:56;;;;;;;2.60;2.20;;;;;;;;;;5039581;28;20049;-75
2022/08/05 10:56:01;;;;;;;2.65;2.20;;;;;;;;;;5033084;28;20045;-77
2022/08/05 10:58:53;;;;;;;5.97;2.25;;;;;;;;;;5033733;28;20037;-75
2022/08/05 11:01:44;;;;;;;2.33;2.13;;;;;;;;;;5032733;28;20045;-76
2022/08/05 11:04:29;;;;;;;2.35;2.10;;;;;;;;;;5033850;28;20041;-76
2022/08/05 11:07:17;;;;;;;2.33;2.03;;;;;;;;;;5039927;28;20386;-75
2022/08/05 11:10:02;;;;;;;3.30;2.40;;;;;;;;;;5035970;28;20037;-76
2022/08/05 11:12:47;;;;;;;2.47;2.17;;;;;;;;;;5043930;28;20479;-78
2022/08/05 11:15:42;;;;;;;3.03;2.17;;;;;;;;;;5043197;28;20049;-76
2022/08/05 11:18:31;;;;;;;3.38;2.00;;;;;;;;;;5036255;28;20402;-78
2022/08/05 11:21:31;;;;;;;3.15;2.10;;;;;;;;;;5034948;28;20406;-79
2022/08/05 11:24:17;;;;;;;5.45;2.20;;;;;;;;;;5036327;28;20045;-77
2022/08/05 11:27:39;;;;;;;4.60;2.15;;;;;;;;;;5041871;28;20057;-76
2022/08/05 11:30:24;;;;;;;2.55;1.92;;;;;;;;;;4955692;29;20048;-77
2022/08/05 11:33:29;;;;;;;3.83;2.10;;;;;;;;;;5036799;28;20046;-77
2022/08/05 11:36:17;;;;;;;2.00;1.90;;;;;;;;;;5036130;28;20049;-77
2022/08/05 11:39:04;;;;;;;2.95;2.13;;;;;;;;;;5036811;28;20395;-77
2022/08/05 11:41:51;;;;;;;2.58;2.15;;;;;;;;;;5037425;28;20483;-76
2022/08/05 11:44:37;;;;;;;4.30;2.30;;;;;;;;;;5036402;28;20053;-76
2022/08/05 11:47:22;;;;;;;2.05;1.85;;;;;;;;;;5037615;28;20113;-77
2022/08/05 11:50:08;;;;;;;2.90;2.10;;;;;;;;;;5037022;28;20053;-76
2022/08/05 11:52:54;;;;;;;2.20;2.00;;;;;;;;;;5042871;28;20053;-75
2022/08/05 11:55:52;;;;;;;3.40;2.13;;;;;;;;;;5036645;28;20041;-77
2022/08/05 11:58:40;;;;;;;3.72;2.03;;;;;;;;;;5036214;28;20049;-76
2022/08/05 12:01:25;;;;;;;2.60;2.30;;;;;;;;;;5036648;28;20041;-77
2022/08/05 12:04:10;;;;;;;2.90;2.15;;;;;;;;;;5043284;28;20045;-76
2022/08/05 12:06:58;;;;;;;2.08;1.90;;;;;;;;;;5036248;28;20395;-77
2022/08/05 12:09:52;;;;;;;2.30;2.00;;;;;;;;;;5043078;28;20053;-76
2022/08/05 12:12:38;;;;;;;2.08;1.88;;;;;;;;;;5041835;28;20045;-76
2022/08/05 12:15:23;;;;;;;2.78;2.00;;;;;;;;;;5035461;28;20045;-76
2022/08/05 12:18:08;;;;;;;3.83;2.25;;;;;;;;;;5036016;28;20042;-77
2022/08/05 12:20:55;;;;;;;2.20;2.00;;;;;;;;;;5035384;28;20053;-75
2022/08/05 12:24:00;;;;;;;2.63;2.40;;;;;;;;;;5042764;28;20049;-76
2022/08/05 12:26:52;;;;;;;5.40;2.13;;;;;;;;;;5035375;28;20399;-76
2022/08/05 12:29:37;;;;;;;2.15;1.88;;;;;;;;;;5036053;28;20045;-77
2022/08/05 12:32:23;;;;;;;4.40;2.30;;;;;;;;;;5036366;28;20038;-77
2022/08/05 12:35:09;;;;;;;2.45;2.25;;;;;;;;;;5036523;28;20045;-76
2022/08/05 12:37:54;;;;;;;8.68;2.40;;;;;;;;;;5036222;28;20045;-77
2022/08/05 12:40:39;;;;;;;3.90;2.40;;;;;;;;;;5042263;28;20045;-76
2022/08/05 12:43:25;;;;;;;4.15;2.20;;;;;;;;;;5035988;28;20478;-77
2022/08/05 12:46:22;;;;;;;4.35;2.17;;;;;;;;;;5036004;28;20395;-77
2022/08/05 12:49:14;;;;;;;2.17;1.90;;;;;;;;;;5035536;28;20486;-77
2022/08/05 12:52:00;;;;;;;2.88;2.20;;;;;;;;;;5036168;28;20394;-76
2022/08/05 12:54:47;;;;;;;3.05;2.17;;;;;;;;;;5034769;28;20045;-76
2022/08/05 12:57:36;;;;;;;2.30;2.10;;;;;;;;;;5037120;28;20053;-76
2022/08/05 13:00:24;;;;;;;2.22;1.95;;;;;;;;;;5035535;28;20395;-77
2022/08/05 13:03:11;;;;;;;4.63;2.10;;;;;;;;;;5041762;28;20049;-77
2022/08/05 13:05:57;;;;;;;2.53;2.00;;;;;;;;;;5035394;28;20399;-76
2022/08/05 13:08:44;;;;;;;4.22;2.08;;;;;;;;;;5035012;28;20475;-76
2022/08/05 13:11:29;;;;;;;2.30;2.10;;;;;;;;;;5026834;28;20391;-75
2022/08/05 13:14:23;;;;;;;3.72;2.25;;;;;;;;;;5035461;28;20038;-74
2022/08/05 13:17:16;;;;;;;3.77;2.10;;;;;;;;;;5035694;28;20057;-81
2022/08/05 13:20:05;;;;;;;2.60;1.95;;;;;;;;;;5041774;28;20274;-75
2022/08/05 13:22:51;;;;;;;3.35;2.20;;;;;;;;;;5034539;28;20495;-77
2022/08/05 13:25:37;;;;;;;2.67;2.00;;;;;;;;;;5036196;28;20395;-75
2022/08/05 13:28:22;;;;;;;2.83;1.90;;;;;;;;;;5034929;28;20033;-77
2022/08/05 13:31:08;;;;;;;2.65;2.08;;;;;;;;;;5019120;28;20053;-77
2022/08/05 13:33:54;;;;;;;2.10;1.90;;;;;;;;;;5035271;28;20041;-78
2022/08/05 13:36:39;;;;;;;2.55;2.00;;;;;;;;;;5034421;28;20045;-79
2022/08/05 13:39:24;;;;;;;2.42;1.92;;;;;;;;;;5041303;28;20061;-77
2022/08/05 13:42:11;;;;;;;2.92;2.20;;;;;;;;;;5035102;28;20045;-77
2022/08/05 13:44:57;;;;;;;3.60;1.95;;;;;;;;;;5034144;28;20045;-78
2022/08/05 13:47:42;;;;;;;5.05;4.03;;;;;;;;;;5034505;28;20045;-78
2022/08/05 13:50:28;;;;;;;3.53;2.78;;;;;;;;;;5034517;28;20045;-79
2022/08/05 13:53:13;;;;;;;3.03;2.15;;;;;;;;;;5033894;28;20037;-78
2022/08/05 13:55:59;;;;;;;3.83;2.00;;;;;;;;;;5042770;28;20390;-78
2022/08/05 13:58:46;;;;;;;3.30;2.10;;;;;;;;;;5041415;28;20041;-78
2022/08/05 14:01:31;;;;;;;3.88;1.80;;;;;;;;;;5036224;28;20041;-78
2022/08/05 14:07:28;;;;;;;2.58;1.80;;;;;;;;;;5025873;28;20053;-80
2022/08/05 14:10:17;;;;;;;2.10;1.90;;;;;;;;;;5034008;28;20394;-76
2022/08/05 14:13:02;;;;;;;3.67;2.05;;;;;;;;;;5040464;28;20049;-77
2022/08/05 14:15:48;;;;;;;3.03;1.95;;;;;;;;;;5033913;28;20049;-79
2022/08/05 14:18:33;;;;;;;5.07;2.20;;;;;;;;;;5034393;28;20046;-79
2022/08/05 14:21:19;;;;;;;3.38;2.00;;;;;;;;;;5033244;28;20045;-79
2022/08/05 14:24:07;;;;;;;4.50;2.03;;;;;;;;;;5035273;28;20422;-78
2022/08/05 14:26:53;;;;;;;3.72;2.00;;;;;;;;;;5034967;28;20053;-77
2022/08/05 14:29:38;;;;;;;4.63;2.10;;;;;;;;;;5041110;28;20053;-76
2022/08/05 14:32:23;;;;;;;2.75;1.90;;;;;;;;;;5033878;28;20049;-76
2022/08/05 14:35:09;;;;;;;6.05;2.00;;;;;;;;;;5035219;28;20471;-77
2022/08/05 14:37:55;;;;;;;2.92;2.10;;;;;;;;;;5033558;28;20049;-77
2022/08/05 14:40:40;;;;;;;2.80;2.10;;;;;;;;;;5033968;28;20414;-78
2022/08/05 14:43:26;;;;;;;2.90;2.35;;;;;;;;;;5026554;28;20041;-77
2022/08/05 14:46:11;;;;;;;2.42;2.20;;;;;;;;;;5033924;28;20037;-78
2022/08/05 14:48:59;;;;;;;2.10;1.80;;;;;;;;;;5035209;28;20053;-77
2022/08/05 14:51:44;;;;;;;2.38;1.95;;;;;;;;;;5032665;28;20386;-75
2022/08/05 14:54:29;;;;;;;2.05;1.70;;;;;;;;;;5033702;28;20056;-77
2022/08/05 14:57:15;;;;;;;4.55;1.77;;;;;;;;;;5034056;28;20053;-77
2022/08/05 15:00:00;;;;;;;4.45;2.15;;;;;;;;;;5034775;28;20049;-78
2022/08/05 15:02:46;;;;;;;4.03;1.80;;;;;;;;;;5033310;28;20399;-78
2022/08/05 15:05:33;;;;;;;2.42;1.73;;;;;;;;;;5034716;28;20038;-77
2022/08/05 15:08:19;;;;;;;4.18;2.08;;;;;;;;;;5034543;28;20038;-77
2022/08/05 15:11:06;;;;;;;1.75;1.65;;;;;;;;;;5033862;28;20050;-77
2022/08/05 15:13:52;;;;;;;6.10;2.22;;;;;;;;;;5034529;28;20371;-76
2022/08/05 15:16:39;;;;;;;3.90;1.80;;;;;;;;;;5034169;28;20057;-80
2022/08/05 15:19:24;;;;;;;2.25;1.77;;;;;;;;;;5040394;28;20425;-77
2022/08/05 15:22:10;;;;;;;2.80;1.90;;;;;;;;;;5033209;28;20049;-77
2022/08/05 15:24:57;;;;;;;3.08;1.90;;;;;;;;;;5040893;28;20071;-76
2022/08/05 15:27:42;;;;;;;2.00;1.90;;;;;;;;;;5034146;28;20041;-77
2022/08/05 15:30:30;;;;;;;2.22;1.92;;;;;;;;;;5033882;28;20045;-76
2022/08/05 15:33:15;;;;;;;2.03;1.83;;;;;;;;;;5033756;28;20061;-77
2022/08/05 15:36:03;;;;;;;3.28;1.70;;;;;;;;;;5040556;28;20053;-77
2022/08/05 15:38:48;;;;;;;2.88;1.83;;;;;;;;;;5040678;28;20399;-77
2022/08/05 15:41:34;;;;;;;3.47;2.10;;;;;;;;;;5039874;28;20045;-78
2022/08/05 15:44:20;;;;;;;2.55;1.77;;;;;;;;;;5040127;28;20478;-77
2022/08/05 15:47:05;;;;;;;3.75;1.85;;;;;;;;;;5025423;28;20045;-76
2022/08/05 15:49:51;;;;;;;2.30;1.92;;;;;;;;;;5034439;28;20406;-76
2022/08/05 15:52:37;;;;;;;1.83;1.67;;;;;;;;;;5032688;28;20478;-78
2022/08/05 15:55:22;;;;;;;3.08;2.10;;;;;;;;;;5034663;28;20426;-76
2022/08/05 15:58:07;;;;;;;11.05;2.10;;;;;;;;;;5039883;28;20038;-77
2022/08/05 16:00:52;;;;;;;2.03;1.88;;;;;;;;;;5036961;28;20498;-78
2022/08/05 16:03:38;;;;;;;2.15;1.80;;;;;;;;;;5042763;28;20049;-78
2022/08/05 16:06:23;;;;;;;2.13;1.92;;;;;;;;;;5037374;28;20041;-78
2022/08/05 16:09:08;;;;;;;1.75;1.63;;;;;;;;;;5035625;28;20046;-78
2022/08/05 16:11:54;;;;;;;3.15;1.95;;;;;;;;;;5042985;28;20045;-78
2022/08/05 16:14:40;;;;;;;2.75;2.05;;;;;;;;;;5036302;28;20129;-79
2022/08/05 16:17:26;;;;;;;2.80;2.03;;;;;;;;;;5036167;28;20041;-78
2022/08/05 16:20:11;;;;;;;2.78;1.80;;;;;;;;;;5035629;28;20426;-77
2022/08/05 16:22:57;;;;;;;4.25;2.10;;;;;;;;;;5036102;28;20041;-76
2022/08/05 16:25:43;;;;;;;3.05;2.28;;;;;;;;;;5036291;28;20050;-78
2022/08/05 16:28:28;;;;;;;2.03;1.65;;;;;;;;;;5042621;28;20045;-79
2022/08/05 16:31:14;;;;;;;3.03;1.88;;;;;;;;;;5035906;28;20479;-78
2022/08/05 16:33:59;;;;;;;4.40;1.90;;;;;;;;;;5036230;28;20045;-80
2022/08/05 16:36:45;;;;;;;4.47;2.10;;;;;;;;;;5035826;28;20057;-78
2022/08/05 16:39:31;;;;;;;2.85;1.77;;;;;;;;;;5043299;28;20041;-77
2022/08/05 16:42:16;;;;;;;2.45;2.00;;;;;;;;;;5036071;28;20041;-78
2022/08/05 16:45:02;;;;;;;6.40;2.35;;;;;;;;;;5035779;28;20038;-76
2022/08/05 16:47:47;;;;;;;2.15;1.77;;;;;;;;;;5042283;28;20041;-78
2022/08/05 16:50:33;;;;;;;3.53;2.10;;;;;;;;;;5035671;28;20045;-77
2022/08/05 16:53:19;;;;;;;4.18;2.03;;;;;;;;;;5041717;28;20041;-78
2022/08/05 16:56:04;;;;;;;2.20;1.85;;;;;;;;;;5035621;28;20431;-77